sensor_id;sensor_type;location;lat;lon;timestamp;temperature;humidity
13665;DHT22;6905;50.770;6.730;2022-08-11T00:03:38;21.40;96.30
13665;DHT22;6905;50.770;6.730;2022-08-11T00:06:37;21.40;96.30
13665;DHT22;6905;50.770;6.730;2022-08-11T00:12:32;21.30;96.80
13665;DHT22;6905;50.770;6.730;2022-08-11T00:15:22;21.20;97.20
13665;DHT22;6905;50.770;6.730;2022-08-11T00:18:13;21.20;97.60
13665;DHT22;6905;50.770;6.730;2022-08-11T00:36:08;20.90;99.40
13665;DHT22;6905;50.770;6.730;2022-08-11T00:39:04;20.90;99.90
13665;DHT22;6905;50.770;6.730;2022-08-11T00:42:10;20.80;99.90
13665;DHT22;6905;50.770;6.730;2022-08-11T00:45:00;20.80;99.90
13665;DHT22;6905;50.770;6.730;2022-08-11T00:47:54;20.70;99.90
13665;DHT22;6905;50.770;6.730;2022-08-11T00:50:44;20.70;99.90
13665;DHT22;6905;50.770;6.730;2022-08-11T00:53:43;20.60;99.90
13665;DHT22;6905;50.770;6.730;2022-08-11T01:05:39;20.50;99.90
13665;DHT22;6905;50.770;6.730;2022-08-11T01:44:49;19.90;99.90
13665;DHT22;6905;50.770;6.730;2022-08-11T01:47:38;19.80;99.90
13665;DHT22;6905;50.770;6.730;2022-08-11T01:50:30;19.80;99.90
13665;DHT22;6905;50.770;6.730;2022-08-11T01:53:20;19.80;99.90
13665;DHT22;6905;50.770;6.730;2022-08-11T01:56:10;19.70;99.90
13665;DHT22;6905;50.770;6.730;2022-08-11T01:58:55;19.70;99.90
13665;DHT22;6905;50.770;6.730;2022-08-11T02:01:48;19.60;99.90
13665;DHT22;6905;50.770;6.730;2022-08-11T02:04:28;19.60;99.90
13665;DHT22;6905;50.770;6.730;2022-08-11T02:07:12;19.60;99.90
13665;DHT22;6905;50.770;6.730;2022-08-11T02:10:01;19.50;99.90
13665;DHT22;6905;50.770;6.730;2022-08-11T02:12:45;19.50;99.90
13665;DHT22;6905;50.770;6.730;2022-08-11T02:15:33;19.40;99.90
13665;DHT22;6905;50.770;6.730;2022-08-11T02:18:22;19.40;99.90
13665;DHT22;6905;50.770;6.730;2022-08-11T02:21:05;19.30;99.90
13665;DHT22;6905;50.770;6.730;2022-08-11T02:23:54;19.30;99.90
13665;DHT22;6905;50.770;6.730;2022-08-11T02:26:45;19.20;99.90
13665;DHT22;6905;50.770;6.730;2022-08-11T02:29:54;19.20;99.90
13665;DHT22;6905;50.770;6.730;2022-08-11T02:32:40;19.10;99.90
13665;DHT22;6905;50.770;6.730;2022-08-11T02:38:42;19.00;99.90
13665;DHT22;6905;50.770;6.730;2022-08-11T02:41:42;19.00;99.90
13665;DHT22;6905;50.770;6.730;2022-08-11T02:44:31;18.90;99.90
13665;DHT22;6905;50.770;6.730;2022-08-11T02:47:34;18.80;99.90
13665;DHT22;6905;50.770;6.730;2022-08-11T02:50:32;18.80;99.90
13665;DHT22;6905;50.770;6.730;2022-08-11T02:53:18;18.70;99.90
13665;DHT22;6905;50.770;6.730;2022-08-11T03:05:21;18.40;99.90
13665;DHT22;6905;50.770;6.730;2022-08-11T03:11:54;18.20;99.90
13665;DHT22;6905;50.770;6.730;2022-08-11T03:14:43;18.20;99.90
13665;DHT22;6905;50.770;6.730;2022-08-11T03:17:31;18.10;99.90
13665;DHT22;6905;50.770;6.730;2022-08-11T03:32:29;17.90;99.90
13665;DHT22;6905;50.770;6.730;2022-08-11T03:35:25;17.90;99.90
13665;DHT22;6905;50.770;6.730;2022-08-11T03:38:24;17.90;99.90
13665;DHT22;6905;50.770;6.730;2022-08-11T03:41:15;17.80;99.90
13665;DHT22;6905;50.770;6.730;2022-08-11T03:44:03;17.70;99.90
13665;DHT22;6905;50.770;6.730;2022-08-11T03:47:04;17.70;99.90
13665;DHT22;6905;50.770;6.730;2022-08-11T05:50:03;17.30;99.90
13665;DHT22;6905;50.770;6.730;2022-08-11T05:53:03;17.30;99.90
13665;DHT22;6905;50.770;6.730;2022-08-11T05:59:24;17.40;99.90
13665;DHT22;6905;50.770;6.730;2022-08-11T06:02:17;17.40;99.90
13665;DHT22;6905;50.770;6.730;2022-08-11T07:00:58;19.20;99.90
13665;DHT22;6905;50.770;6.730;2022-08-11T07:03:44;19.40;99.90
13665;DHT22;6905;50.770;6.730;2022-08-11T07:06:45;19.60;99.90
13665;DHT22;6905;50.770;6.730;2022-08-11T08:24:00;24.60;99.90
13665;DHT22;6905;50.770;6.730;2022-08-11T08:26:47;24.80;99.90
13665;DHT22;6905;50.770;6.730;2022-08-11T08:29:49;25.10;99.90
13665;DHT22;6905;50.770;6.730;2022-08-11T08:32:40;25.30;99.90
13665;DHT22;6905;50.770;6.730;2022-08-11T08:36:06;25.60;99.80
13665;DHT22;6905;50.770;6.730;2022-08-11T09:51:40;30.70;67.60
13665;DHT22;6905;50.770;6.730;2022-08-11T09:58:03;31.00;63.50
13665;DHT22;6905;50.770;6.730;2022-08-11T10:13:17;31.70;59.40
13665;DHT22;6905;50.770;6.730;2022-08-11T10:19:05;31.80;59.70
13665;DHT22;6905;50.770;6.730;2022-08-11T10:22:02;32.10;61.00
13665;DHT22;6905;50.770;6.730;2022-08-11T10:24:49;32.20;60.20
13665;DHT22;6905;50.770;6.730;2022-08-11T10:27:34;32.30;57.50
13665;DHT22;6905;50.770;6.730;2022-08-11T10:39:26;33.00;54.80
13665;DHT22;6905;50.770;6.730;2022-08-11T10:42:10;33.00;54.10
13665;DHT22;6905;50.770;6.730;2022-08-11T10:44:57;33.00;55.80
13665;DHT22;6905;50.770;6.730;2022-08-11T11:55:32;34.80;51.60
13665;DHT22;6905;50.770;6.730;2022-08-11T11:58:33;34.70;52.00
13665;DHT22;6905;50.770;6.730;2022-08-11T12:01:19;34.40;51.40
13665;DHT22;6905;50.770;6.730;2022-08-11T13:24:42;36.60;47.80
